createdAt,value
2023-01-29T00:02:27.927Z,79.90
2023-01-29T00:05:24.760Z,79.82
2023-01-29T00:08:05.042Z,79.86
2023-01-29T00:10:49.234Z,80.14
2023-01-29T00:13:25.122Z,79.99
2023-01-29T00:16:01.807Z,80.23
2023-01-29T00:18:43.859Z,80.52
2023-01-29T00:21:24.466Z,80.34
2023-01-29T00:24:01.568Z,80.48
2023-01-29T00:26:41.025Z,80.31
2023-01-29T00:29:17.927Z,80.44
2023-01-29T00:31:52.971Z,80.54
2023-01-29T00:34:32.150Z,80.25
2023-01-29T00:37:09.622Z,80.34
2023-01-29T00:39:50.093Z,80.54
2023-01-29T00:42:43.435Z,80.48
2023-01-29T00:45:20.016Z,80.55
2023-01-29T00:47:55.853Z,80.54
2023-01-29T00:50:33.357Z,80.58
2023-01-29T00:53:09.807Z,80.63
2023-01-29T00:55:49.376Z,80.66
2023-01-29T00:58:34.532Z,80.71
2023-01-29T01:01:16.532Z,80.57
2023-01-29T01:03:52.786Z,80.46
2023-01-29T01:06:28.955Z,80.48
2023-01-29T01:09:23.330Z,80.37
2023-01-29T01:12:07.062Z,80.55
2023-01-29T01:14:50.801Z,80.49
2023-01-29T01:17:32.016Z,80.47
2023-01-29T01:20:09.053Z,80.36
2023-01-29T01:22:44.569Z,80.65
2023-01-29T01:25:36.875Z,80.73
2023-01-29T01:28:15.516Z,80.62
2023-01-29T01:30:53.373Z,80.38
2023-01-29T01:33:29.579Z,80.20
2023-01-29T01:36:10.593Z,80.21
2023-01-29T01:38:48.954Z,80.37
2023-01-29T01:41:24.542Z,80.26
2023-01-29T01:44:06.369Z,80.24
2023-01-29T01:46:42.274Z,80.12
2023-01-29T01:49:34.025Z,80.08
2023-01-29T01:52:11.292Z,79.83
2023-01-29T01:54:49.032Z,80.01
2023-01-29T01:57:26.670Z,79.89
2023-01-29T02:00:12.411Z,79.60
2023-01-29T02:03:08.410Z,79.98
2023-01-29T02:06:06.791Z,79.81
2023-01-29T02:09:05.919Z,79.84
2023-01-29T02:11:44.241Z,79.69
2023-01-29T02:14:21.495Z,79.56
2023-01-29T02:16:58.516Z,79.53
2023-01-29T02:19:49.396Z,79.65
2023-01-29T02:22:46.727Z,79.79
2023-01-29T02:25:52.195Z,79.61
2023-01-29T02:29:24.891Z,79.80
2023-01-29T02:32:15.089Z,79.58
2023-01-29T02:35:23.492Z,79.71
2023-01-29T02:38:18.070Z,79.60
2023-01-29T02:41:14.977Z,79.77
2023-01-29T02:44:07.063Z,79.76
2023-01-29T02:46:51.726Z,79.61
2023-01-29T02:49:34.325Z,79.70
2023-01-29T02:52:24.187Z,79.76
2023-01-29T02:55:09.069Z,79.76
2023-01-29T02:57:55.348Z,79.88
2023-01-29T03:00:37.610Z,79.62
2023-01-29T03:03:27.519Z,79.57
2023-01-29T03:06:13.241Z,79.73
2023-01-29T03:08:58.052Z,79.87
2023-01-29T03:11:41.094Z,80.02
2023-01-29T03:14:20.742Z,80.03
2023-01-29T03:16:58.152Z,80.04
2023-01-29T03:19:48.734Z,79.98
2023-01-29T03:22:32.938Z,79.88
2023-01-29T03:25:30.233Z,80.00
2023-01-29T03:28:29.905Z,79.83
2023-01-29T03:31:28.387Z,79.85
2023-01-29T03:34:17.550Z,79.94
2023-01-29T03:36:59.185Z,79.85
2023-01-29T03:39:37.275Z,79.93
2023-01-29T03:42:21.069Z,79.96
2023-01-29T03:45:10.939Z,79.72
2023-01-29T03:47:54.011Z,79.80
2023-01-29T03:50:45.775Z,79.68
2023-01-29T03:53:28.222Z,79.91
2023-01-29T03:56:23.019Z,79.76
2023-01-29T03:59:11.442Z,79.62
2023-01-29T04:02:13.391Z,79.91
2023-01-29T04:04:55.882Z,79.77
2023-01-29T04:07:33.996Z,79.66
2023-01-29T04:10:19.268Z,79.75
2023-01-29T04:13:04.298Z,79.90
2023-01-29T04:15:50.507Z,79.92
2023-01-29T04:18:37.394Z,79.83
2023-01-29T04:21:20.737Z,79.99
2023-01-29T04:24:01.527Z,79.73
2023-01-29T04:26:58.284Z,79.65
2023-01-29T04:29:43.948Z,79.94
2023-01-29T04:32:29.808Z,79.84
2023-01-29T04:35:19.387Z,79.89
2023-01-29T04:38:05.603Z,80.17
2023-01-29T04:40:52.925Z,80.34
2023-01-29T04:43:36.052Z,80.32
2023-01-29T04:46:19.580Z,80.32
2023-01-29T04:49:07.909Z,80.56
2023-01-29T04:51:51.812Z,80.68
2023-01-29T04:54:37.568Z,80.95
2023-01-29T04:57:29.543Z,80.63
2023-01-29T05:00:14.651Z,81.12
2023-01-29T05:02:56.629Z,81.01
2023-01-29T05:05:33.936Z,80.93
2023-01-29T05:08:12.361Z,81.02
2023-01-29T05:10:51.633Z,81.02
2023-01-29T05:13:39.520Z,81.06
2023-01-29T05:16:23.716Z,81.06
2023-01-29T05:19:02.599Z,81.16
2023-01-29T05:21:41.298Z,81.32
2023-01-29T05:24:19.436Z,81.25
2023-01-29T05:27:13.817Z,81.58
2023-01-29T05:29:51.880Z,81.49
2023-01-29T05:32:29.062Z,81.39
2023-01-29T05:35:05.961Z,81.66
2023-01-29T05:37:41.545Z,81.71
2023-01-29T05:40:19.057Z,82.11
2023-01-29T05:42:55.315Z,82.50
2023-01-29T05:45:29.772Z,82.80
2023-01-29T05:48:07.973Z,82.92
2023-01-29T05:50:46.666Z,83.37
2023-01-29T05:53:22.866Z,83.57
2023-01-29T05:55:59.479Z,83.58
2023-01-29T05:58:35.439Z,83.88
2023-01-29T06:01:22.204Z,83.71
2023-01-29T06:03:57.686Z,84.02
2023-01-29T06:06:31.981Z,83.91
2023-01-29T06:09:10.847Z,84.13
2023-01-29T06:11:45.769Z,84.20
2023-01-29T06:14:22.397Z,84.08
2023-01-29T06:16:59.356Z,84.34
2023-01-29T06:19:51.723Z,84.47
2023-01-29T06:22:31.532Z,84.63
2023-01-29T06:25:10.239Z,84.67
2023-01-29T06:27:49.675Z,84.58
2023-01-29T06:30:25.827Z,84.67
2023-01-29T06:33:03.360Z,84.56
2023-01-29T06:35:46.460Z,84.67
2023-01-29T06:38:22.573Z,85.03
2023-01-29T06:41:02.086Z,84.93
2023-01-29T06:43:39.341Z,85.27
2023-01-29T06:46:16.462Z,85.39
2023-01-29T06:48:56.555Z,85.60
2023-01-29T06:51:32.852Z,85.45
2023-01-29T06:54:12.523Z,85.60
2023-01-29T06:56:54.303Z,85.86
2023-01-29T06:59:31.424Z,86.01
2023-01-29T07:02:11.439Z,86.09
2023-01-29T07:04:48.889Z,86.21
2023-01-29T07:07:33.617Z,86.26
2023-01-29T07:10:14.977Z,86.45
2023-01-29T07:13:07.095Z,86.36
2023-01-29T07:15:51.485Z,86.47
2023-01-29T07:18:30.715Z,86.59
2023-01-29T07:21:14.524Z,86.62
2023-01-29T07:23:52.468Z,86.70
2023-01-29T07:26:32.926Z,86.87
2023-01-29T07:29:13.672Z,86.79
2023-01-29T07:31:52.339Z,86.82
2023-01-29T07:34:36.966Z,86.88
2023-01-29T07:37:16.962Z,86.65
2023-01-29T07:39:54.226Z,86.50
2023-01-29T07:42:32.712Z,86.47
2023-01-29T07:45:11.068Z,86.65
2023-01-29T07:47:55.575Z,86.55
2023-01-29T07:50:39.759Z,86.60
2023-01-29T07:53:18.548Z,86.45
2023-01-29T07:55:59.897Z,86.31
2023-01-29T07:58:37.241Z,86.39
2023-01-29T08:01:16.478Z,86.38
2023-01-29T08:03:53.023Z,86.40
2023-01-29T08:06:28.461Z,86.48
2023-01-29T08:09:05.854Z,86.62
2023-01-29T08:11:47.412Z,86.50
2023-01-29T08:14:26.682Z,86.76
2023-01-29T08:17:05.180Z,86.55
2023-01-29T08:19:48.181Z,86.44
2023-01-29T08:22:23.246Z,86.40
2023-01-29T08:25:08.271Z,86.42
2023-01-29T08:27:50.862Z,86.44
2023-01-29T08:30:28.099Z,86.53
2023-01-29T08:33:07.999Z,86.55
2023-01-29T08:35:51.918Z,86.60
2023-01-29T08:38:31.231Z,86.40
2023-01-29T08:41:08.112Z,86.28
2023-01-29T08:43:49.588Z,86.40
2023-01-29T08:46:32.663Z,86.25
2023-01-29T08:49:10.675Z,86.42
2023-01-29T08:51:46.907Z,86.26
2023-01-29T08:54:23.449Z,86.45
2023-01-29T08:57:01.676Z,86.60
2023-01-29T08:59:36.838Z,86.31
2023-01-29T09:02:13.398Z,86.20
2023-01-29T09:04:50.816Z,86.15
2023-01-29T09:07:31.018Z,86.07
2023-01-29T09:10:08.346Z,86.33
2023-01-29T09:12:43.466Z,86.05
2023-01-29T09:15:18.685Z,86.46
2023-01-29T09:17:55.460Z,86.23
2023-01-29T09:20:31.064Z,85.94
2023-01-29T09:23:14.374Z,86.16
2023-01-29T09:25:51.984Z,86.07
2023-01-29T09:28:27.928Z,85.96
2023-01-29T09:31:05.307Z,86.35
2023-01-29T09:33:41.742Z,86.31
2023-01-29T09:36:19.920Z,86.08
2023-01-29T09:38:56.383Z,86.33
2023-01-29T09:41:46.224Z,86.24
2023-01-29T09:44:28.287Z,86.07
2023-01-29T09:47:08.188Z,86.22
2023-01-29T09:49:46.727Z,86.27
2023-01-29T09:52:32.231Z,86.04
2023-01-29T09:55:19.221Z,86.35
2023-01-29T09:57:59.299Z,86.45
2023-01-29T10:00:40.897Z,86.43
2023-01-29T10:03:34.887Z,86.49
2023-01-29T10:06:24.775Z,86.24
2023-01-29T10:12:43.879Z,86.42
2023-01-29T10:15:33.423Z,86.71
2023-01-29T10:18:43.578Z,86.83
2023-01-29T10:21:36.124Z,86.89
2023-01-29T10:24:22.104Z,86.80
2023-01-29T10:27:01.415Z,87.08
2023-01-29T10:29:37.513Z,86.68
2023-01-29T10:32:19.951Z,87.06
2023-01-29T10:35:06.949Z,86.82
2023-01-29T10:37:45.275Z,87.09
2023-01-29T10:40:29.848Z,86.98
2023-01-29T10:43:13.886Z,86.70
2023-01-29T10:45:57.920Z,86.94
2023-01-29T10:48:55.799Z,87.07
2023-01-29T10:51:56.773Z,87.14
2023-01-29T10:54:49.456Z,87.44
2023-01-29T10:57:43.179Z,87.35
2023-01-29T11:00:24.679Z,87.20
2023-01-29T11:03:01.183Z,87.31
2023-01-29T11:05:43.707Z,87.31
2023-01-29T11:08:23.596Z,87.38
2023-01-29T11:11:08.079Z,87.33
2023-01-29T11:13:47.516Z,87.51
2023-01-29T11:16:23.491Z,87.44
2023-01-29T11:19:01.391Z,87.65
2023-01-29T11:21:58.276Z,87.51
2023-01-29T11:24:35.294Z,87.36
2023-01-29T11:27:26.251Z,87.53
2023-01-29T11:30:02.902Z,87.75
2023-01-29T11:32:39.151Z,87.89
2023-01-29T11:35:27.020Z,87.54
2023-01-29T11:38:11.781Z,87.74
2023-01-29T11:40:47.773Z,87.63
2023-01-29T11:43:32.702Z,87.63
2023-01-29T11:46:10.261Z,87.58
2023-01-29T11:48:51.363Z,87.66
2023-01-29T11:51:29.694Z,87.70
2023-01-29T11:54:08.937Z,87.80
2023-01-29T11:56:48.327Z,87.49
2023-01-29T11:59:40.591Z,87.35
2023-01-29T12:02:38.969Z,87.87
2023-01-29T12:05:24.038Z,87.93
2023-01-29T12:08:01.792Z,87.91
2023-01-29T12:10:39.157Z,87.75
2023-01-29T12:13:30.556Z,88.01
2023-01-29T12:16:25.433Z,88.25
2023-01-29T12:19:08.311Z,88.47
2023-01-29T12:21:50.534Z,88.37
2023-01-29T12:24:37.660Z,88.48
2023-01-29T12:27:18.492Z,88.32
2023-01-29T12:30:00.663Z,88.39
2023-01-29T12:32:43.441Z,88.39
2023-01-29T12:35:28.410Z,88.34
2023-01-29T12:38:10.910Z,88.46
2023-01-29T12:40:50.101Z,88.50
2023-01-29T12:43:40.208Z,88.60
2023-01-29T12:46:24.853Z,88.70
2023-01-29T12:49:06.023Z,88.84
2023-01-29T12:51:49.262Z,88.92
2023-01-29T12:54:30.264Z,89.06
2023-01-29T12:57:12.008Z,89.06
2023-01-29T12:59:53.393Z,89.02
2023-01-29T13:02:38.128Z,89.15
2023-01-29T13:05:25.406Z,89.38
2023-01-29T13:08:05.378Z,89.38
2023-01-29T13:10:44.927Z,89.56
2023-01-29T13:13:30.060Z,89.59
2023-01-29T13:16:06.357Z,89.67
2023-01-29T13:18:57.511Z,89.70
2023-01-29T13:21:39.693Z,89.89
2023-01-29T13:24:17.875Z,90.04
2023-01-29T13:26:52.499Z,89.90
2023-01-29T13:29:29.968Z,89.78
2023-01-29T13:32:07.346Z,89.83
2023-01-29T13:34:49.983Z,89.74
2023-01-29T13:37:33.551Z,89.85
2023-01-29T13:40:22.525Z,89.90
2023-01-29T13:43:00.381Z,89.82
2023-01-29T13:45:48.287Z,89.74
2023-01-29T13:48:29.928Z,89.77
2023-01-29T13:51:15.770Z,89.87
2023-01-29T13:53:59.975Z,89.65
2023-01-29T13:57:32.040Z,89.58
2023-01-29T14:00:06.828Z,89.75
2023-01-29T14:02:42.345Z,89.86
2023-01-29T14:05:43.443Z,89.67
2023-01-29T14:08:48.878Z,89.83
2023-01-29T14:12:03.082Z,89.65
2023-01-29T14:15:19.860Z,89.87
2023-01-29T14:18:05.967Z,90.07
2023-01-29T14:20:51.279Z,89.67
2023-01-29T14:23:40.612Z,89.78
2023-01-29T14:26:32.074Z,89.66
2023-01-29T14:29:32.638Z,89.81
2023-01-29T14:32:20.685Z,89.81
2023-01-29T14:34:59.432Z,89.89
2023-01-29T14:37:40.268Z,90.04
2023-01-29T14:40:25.396Z,89.94
2023-01-29T14:43:05.142Z,89.60
2023-01-29T14:45:44.765Z,90.07
2023-01-29T14:48:49.420Z,90.20
2023-01-29T14:51:28.842Z,90.13
2023-01-29T14:54:15.174Z,90.25
2023-01-29T14:56:58.724Z,90.45
2023-01-29T14:59:41.879Z,90.06
2023-01-29T15:02:21.917Z,90.05
2023-01-29T15:05:00.096Z,90.07
2023-01-29T15:07:38.888Z,90.53
2023-01-29T15:10:27.251Z,90.19
2023-01-29T15:13:07.072Z,90.29
2023-01-29T15:15:49.854Z,90.70
2023-01-29T15:18:35.250Z,90.41
2023-01-29T15:21:19.954Z,90.42
2023-01-29T15:24:07.625Z,90.30
2023-01-29T15:26:44.533Z,90.45
2023-01-29T15:29:28.457Z,90.48
2023-01-29T15:32:05.864Z,90.67
2023-01-29T15:34:45.235Z,90.68
2023-01-29T15:37:34.710Z,90.57
2023-01-29T15:40:19.409Z,90.81
2023-01-29T15:42:55.048Z,90.59
2023-01-29T15:45:42.888Z,90.85
2023-01-29T15:48:23.700Z,90.98
2023-01-29T15:51:00.216Z,91.14
2023-01-29T15:53:42.778Z,90.96
2023-01-29T15:56:20.850Z,90.84
2023-01-29T15:58:57.282Z,90.74
2023-01-29T16:01:34.102Z,90.82
2023-01-29T16:04:14.420Z,90.77
2023-01-29T16:06:53.694Z,90.70
2023-01-29T16:09:31.442Z,91.01
2023-01-29T16:12:07.650Z,90.83
2023-01-29T16:14:43.776Z,91.21
2023-01-29T16:17:36.386Z,90.79
2023-01-29T16:20:33.783Z,90.76
2023-01-29T16:23:09.801Z,90.77
2023-01-29T16:25:45.326Z,90.89
2023-01-29T16:28:19.337Z,90.72
2023-01-29T16:31:02.686Z,91.16
2023-01-29T16:33:41.541Z,90.77
2023-01-29T16:36:21.890Z,91.16
2023-01-29T16:39:01.531Z,91.26
2023-01-29T16:41:39.597Z,91.25
2023-01-29T16:44:45.080Z,91.27
2023-01-29T16:47:28.985Z,91.59
2023-01-29T16:50:06.084Z,91.31
2023-01-29T16:52:41.427Z,91.41
2023-01-29T16:55:34.051Z,91.73
2023-01-29T16:58:18.328Z,91.72
2023-01-29T17:01:00.902Z,91.78
2023-01-29T17:03:38.401Z,91.63
2023-01-29T17:06:23.406Z,91.99
2023-01-29T17:08:59.270Z,91.80
2023-01-29T17:11:40.137Z,91.84
2023-01-29T17:14:21.431Z,92.07
2023-01-29T17:17:03.868Z,91.63
2023-01-29T17:19:37.879Z,91.81
2023-01-29T17:22:15.723Z,91.84
2023-01-29T17:24:51.636Z,91.87
2023-01-29T17:27:27.161Z,91.88
2023-01-29T17:30:02.337Z,91.98
2023-01-29T17:32:44.806Z,91.99
2023-01-29T17:35:22.440Z,91.68
2023-01-29T17:37:56.752Z,91.97
2023-01-29T17:40:40.865Z,91.89
2023-01-29T17:43:18.724Z,92.15
2023-01-29T17:45:53.878Z,91.91
2023-01-29T17:48:33.210Z,91.97
2023-01-29T17:51:13.808Z,92.13
2023-01-29T17:53:48.205Z,92.46
2023-01-29T17:56:28.713Z,92.44
2023-01-29T17:59:02.249Z,92.68
2023-01-29T18:01:35.769Z,92.23
2023-01-29T18:04:11.500Z,92.51
2023-01-29T18:06:49.374Z,92.69
2023-01-29T18:09:25.053Z,92.84
2023-01-29T18:12:00.374Z,92.69
2023-01-29T18:14:38.032Z,92.84
2023-01-29T18:17:14.712Z,92.78
2023-01-29T18:19:51.221Z,93.06
2023-01-29T18:22:25.766Z,93.00
2023-01-29T18:25:01.224Z,93.17
2023-01-29T18:27:36.335Z,93.21
2023-01-29T18:30:15.682Z,93.36
2023-01-29T18:32:50.678Z,93.21
2023-01-29T18:35:25.911Z,93.35
2023-01-29T18:38:00.791Z,93.29
2023-01-29T18:40:37.513Z,93.25
2023-01-29T18:43:14.338Z,93.15
2023-01-29T18:45:50.188Z,93.13
2023-01-29T18:48:27.428Z,93.33
2023-01-29T18:51:03.639Z,93.37
2023-01-29T18:53:40.459Z,93.65
2023-01-29T18:56:14.097Z,93.60
2023-01-29T18:58:52.178Z,93.57
2023-01-29T19:01:30.133Z,93.38
2023-01-29T19:04:05.672Z,93.41
2023-01-29T19:06:40.955Z,93.33
2023-01-29T19:09:16.467Z,93.20
2023-01-29T19:11:52.059Z,93.26
2023-01-29T19:14:28.692Z,93.55
2023-01-29T19:17:04.699Z,93.77
2023-01-29T19:19:41.818Z,93.97
2023-01-29T19:22:16.749Z,93.77
2023-01-29T19:24:51.861Z,93.69
2023-01-29T19:27:32.538Z,93.47
2023-01-29T19:30:12.955Z,93.77
2023-01-29T19:32:47.293Z,93.53
2023-01-29T19:35:21.413Z,93.45
2023-01-29T19:37:57.400Z,93.73
2023-01-29T19:40:32.120Z,93.63
2023-01-29T19:43:09.203Z,93.46
2023-01-29T19:45:49.624Z,93.76
2023-01-29T19:48:27.608Z,93.58
2023-01-29T19:51:07.200Z,93.18
2023-01-29T19:53:45.528Z,93.31
2023-01-29T19:56:21.779Z,93.08
2023-01-29T19:58:58.648Z,93.04
2023-01-29T20:01:33.909Z,93.06
2023-01-29T20:04:08.453Z,92.73
2023-01-29T20:06:43.726Z,92.89
2023-01-29T20:09:20.655Z,92.51
2023-01-29T20:11:57.380Z,92.65
2023-01-29T20:14:34.783Z,92.87
2023-01-29T20:17:08.774Z,92.79
2023-01-29T20:19:44.628Z,92.66
2023-01-29T20:22:19.715Z,92.38
2023-01-29T20:24:57.386Z,92.54
2023-01-29T20:27:33.805Z,92.58
2023-01-29T20:30:16.956Z,92.51
2023-01-29T20:32:52.689Z,92.47
2023-01-29T20:35:27.472Z,92.39
2023-01-29T20:38:02.506Z,92.33
2023-01-29T20:40:39.062Z,92.59
2023-01-29T20:43:15.569Z,92.12
2023-01-29T20:45:50.787Z,92.21
2023-01-29T20:48:26.653Z,91.99
2023-01-29T20:51:08.171Z,92.18
2023-01-29T20:53:43.207Z,91.93
2023-01-29T20:56:32.189Z,92.07
2023-01-29T20:59:14.106Z,92.03
2023-01-29T21:01:50.018Z,91.81
2023-01-29T21:04:24.694Z,91.97
2023-01-29T21:07:01.963Z,91.44
2023-01-29T21:09:37.607Z,91.82
2023-01-29T21:12:12.400Z,91.84
2023-01-29T21:14:47.455Z,91.78
2023-01-29T21:17:21.993Z,91.78
2023-01-29T21:20:01.300Z,91.82
2023-01-29T21:22:36.777Z,91.74
2023-01-29T21:25:14.146Z,91.71
2023-01-29T21:27:48.823Z,91.67
2023-01-29T21:30:24.666Z,91.46
2023-01-29T21:33:07.143Z,91.56
2023-01-29T21:35:43.066Z,91.50
2023-01-29T21:38:17.037Z,91.36
2023-01-29T21:40:51.913Z,91.72
2023-01-29T21:43:26.842Z,91.66
2023-01-29T21:46:04.069Z,91.61
2023-01-29T21:48:45.051Z,91.29
2023-01-29T21:51:21.132Z,91.13
2023-01-29T21:53:57.588Z,91.59
2023-01-29T21:56:31.766Z,91.85
2023-01-29T21:59:07.003Z,91.46
2023-01-29T22:01:43.355Z,91.49
2023-01-29T22:04:20.001Z,91.12
2023-01-29T22:06:54.344Z,91.27
2023-01-29T22:09:33.464Z,91.55
2023-01-29T22:12:15.110Z,91.10
2023-01-29T22:14:50.913Z,91.37
2023-01-29T22:17:34.810Z,91.59
2023-01-29T22:20:31.291Z,91.30
2023-01-29T22:23:06.137Z,91.66
2023-01-29T22:25:40.391Z,92.01
2023-01-29T22:28:16.128Z,91.95
2023-01-29T22:30:52.952Z,91.77
2023-01-29T22:33:27.561Z,91.70
2023-01-29T22:36:05.002Z,91.81
2023-01-29T22:38:40.006Z,91.69
2023-01-29T22:41:17.057Z,91.69
2023-01-29T22:43:52.994Z,91.52
2023-01-29T22:46:28.806Z,91.39
2023-01-29T22:49:07.599Z,91.56
2023-01-29T22:51:42.839Z,91.82
2023-01-29T22:54:20.592Z,91.73
2023-01-29T22:56:56.486Z,91.49
2023-01-29T22:59:33.902Z,91.75
2023-01-29T23:02:09.714Z,91.67
2023-01-29T23:04:43.476Z,91.50
2023-01-29T23:07:19.190Z,91.86
2023-01-29T23:09:54.292Z,91.17
2023-01-29T23:12:30.345Z,91.47
2023-01-29T23:15:05.719Z,91.46
2023-01-29T23:17:40.073Z,91.55
2023-01-29T23:20:17.360Z,91.30
2023-01-29T23:22:53.836Z,91.27
2023-01-29T23:25:48.934Z,91.22
2023-01-29T23:28:24.868Z,91.42
2023-01-29T23:30:59.928Z,91.26
2023-01-29T23:33:35.283Z,91.51
2023-01-29T23:36:13.374Z,91.23
2023-01-29T23:38:48.706Z,91.00
2023-01-29T23:41:23.044Z,91.17
2023-01-29T23:43:57.319Z,91.26
2023-01-29T23:46:34.920Z,91.06
2023-01-29T23:49:11.097Z,90.86
2023-01-29T23:51:46.520Z,91.32
2023-01-29T23:54:22.101Z,91.08
2023-01-29T23:57:02.459Z,91.27
2023-01-29T23:59:37.257Z,91.09
